sensor_id;sensor_type;location;lat;lon;timestamp;pressure;altitude;pressure_sealevel;temperature;humidity
68758;BME280;55747;51.998;4.466;2023-04-28T00:01:08;56370.34;;;-144.48;70.75
68758;BME280;55747;51.998;4.466;2023-04-28T00:03:34;56341.41;;;-144.48;70.92
68758;BME280;55747;51.998;4.466;2023-04-28T00:05:59;56403.41;;;-144.48;71.42
68758;BME280;55747;51.998;4.466;2023-04-28T00:08:24;56364.13;;;-144.48;71.55
68758;BME280;55747;51.998;4.466;2023-04-28T00:10:51;56353.81;;;-144.48;70.98
68758;BME280;55747;51.998;4.466;2023-04-28T00:13:16;56345.53;;;-144.48;70.55
68758;BME280;55747;51.998;4.466;2023-04-28T00:15:41;56326.94;;;-144.48;70.62
68758;BME280;55747;51.998;4.466;2023-04-28T00:18:06;56345.53;;;-144.48;70.68
68758;BME280;55747;51.998;4.466;2023-04-28T00:20:32;56360.00;;;-144.48;70.33
68758;BME280;55747;51.998;4.466;2023-04-28T00:22:57;56355.88;;;-144.48;69.72
68758;BME280;55747;51.998;4.466;2023-04-28T00:25:22;56351.75;;;-144.48;69.33
68758;BME280;55747;51.998;4.466;2023-04-28T00:27:47;56378.63;;;-144.48;69.40
68758;BME280;55747;51.998;4.466;2023-04-28T00:30:12;56360.00;;;-144.48;69.41
68758;BME280;55747;51.998;4.466;2023-04-28T00:32:38;56370.34;;;-144.48;69.16
68758;BME280;55747;51.998;4.466;2023-04-28T00:35:03;56347.59;;;-144.48;69.20
68758;BME280;55747;51.998;4.466;2023-04-28T00:37:28;56378.63;;;-144.48;69.00
68758;BME280;55747;51.998;4.466;2023-04-28T00:39:54;56353.81;;;-144.48;69.49
68758;BME280;55747;51.998;4.466;2023-04-28T00:42:19;56374.47;;;-144.48;69.49
68758;BME280;55747;51.998;4.466;2023-04-28T00:44:45;56314.53;;;-144.48;69.32
68758;BME280;55747;51.998;4.466;2023-04-28T00:47:10;56351.75;;;-144.48;68.89
68758;BME280;55747;51.998;4.466;2023-04-28T00:49:35;56345.53;;;-144.48;68.87
68758;BME280;55747;51.998;4.466;2023-04-28T00:52:05;56335.19;;;-144.48;68.12
68758;BME280;55747;51.998;4.466;2023-04-28T00:54:31;56382.75;;;-144.48;68.56
68758;BME280;55747;51.998;4.466;2023-04-28T00:56:57;56343.47;;;-144.48;68.72
68758;BME280;55747;51.998;4.466;2023-04-28T00:59:22;56393.09;;;-144.48;68.48
68758;BME280;55747;51.998;4.466;2023-04-28T01:01:48;56364.13;;;-144.48;68.35
68758;BME280;55747;51.998;4.466;2023-04-28T01:04:14;56391.00;;;-144.48;68.55
68758;BME280;55747;51.998;4.466;2023-04-28T01:06:40;56355.88;;;-144.48;69.08
68758;BME280;55747;51.998;4.466;2023-04-28T01:09:05;56368.28;;;-144.48;68.74
68758;BME280;55747;51.998;4.466;2023-04-28T01:11:31;56343.47;;;-144.48;68.86
68758;BME280;55747;51.998;4.466;2023-04-28T01:13:56;56380.69;;;-144.48;68.82
68758;BME280;55747;51.998;4.466;2023-04-28T01:16:23;56335.19;;;-144.48;69.04
68758;BME280;55747;51.998;4.466;2023-04-28T01:18:50;56360.00;;;-144.48;69.16
68758;BME280;55747;51.998;4.466;2023-04-28T01:21:24;56368.28;;;-144.48;68.91
68758;BME280;55747;51.998;4.466;2023-04-28T01:23:49;56376.53;;;-144.48;69.20
68758;BME280;55747;51.998;4.466;2023-04-28T01:26:15;56372.41;;;-144.48;69.12
68758;BME280;55747;51.998;4.466;2023-04-28T01:28:40;56399.28;;;-144.48;68.69
68758;BME280;55747;51.998;4.466;2023-04-28T01:31:05;56337.25;;;-144.48;69.07
68758;BME280;55747;51.998;4.466;2023-04-28T01:33:30;56360.00;;;-144.48;68.95
68758;BME280;55747;51.998;4.466;2023-04-28T01:35:56;56368.28;;;-144.48;68.58
68758;BME280;55747;51.998;4.466;2023-04-28T01:38:21;56335.19;;;-144.48;68.67
68758;BME280;55747;51.998;4.466;2023-04-28T01:40:46;56386.88;;;-144.48;68.86
68758;BME280;55747;51.998;4.466;2023-04-28T01:43:11;56353.81;;;-144.48;69.00
68758;BME280;55747;51.998;4.466;2023-04-28T01:45:37;56355.88;;;-144.48;68.77
68758;BME280;55747;51.998;4.466;2023-04-28T01:48:02;56353.81;;;-144.48;68.83
68758;BME280;55747;51.998;4.466;2023-04-28T01:50:27;56353.81;;;-144.48;69.11
68758;BME280;55747;51.998;4.466;2023-04-28T01:52:52;56362.06;;;-144.48;68.63
68758;BME280;55747;51.998;4.466;2023-04-28T01:55:18;56355.88;;;-144.48;68.75
68758;BME280;55747;51.998;4.466;2023-04-28T01:57:43;56349.66;;;-144.48;68.50
68758;BME280;55747;51.998;4.466;2023-04-28T02:00:08;56378.63;;;-144.48;68.61
68758;BME280;55747;51.998;4.466;2023-04-28T02:02:33;56347.59;;;-144.48;69.02
68758;BME280;55747;51.998;4.466;2023-04-28T02:04:59;56376.53;;;-144.48;68.82
68758;BME280;55747;51.998;4.466;2023-04-28T02:07:24;56409.63;;;-144.48;68.95
68758;BME280;55747;51.998;4.466;2023-04-28T02:09:49;56355.88;;;-144.48;68.98
68758;BME280;55747;51.998;4.466;2023-04-28T02:12:14;56357.94;;;-144.48;68.50
68758;BME280;55747;51.998;4.466;2023-04-28T02:14:41;56366.22;;;-144.48;68.82
68758;BME280;55747;51.998;4.466;2023-04-28T02:17:06;56353.81;;;-144.48;69.10
68758;BME280;55747;51.998;4.466;2023-04-28T02:19:31;56360.00;;;-144.48;69.08
68758;BME280;55747;51.998;4.466;2023-04-28T02:21:56;56347.59;;;-144.48;69.26
68758;BME280;55747;51.998;4.466;2023-04-28T02:24:22;56357.94;;;-144.48;68.96
68758;BME280;55747;51.998;4.466;2023-04-28T02:26:47;56349.66;;;-144.48;69.03
68758;BME280;55747;51.998;4.466;2023-04-28T02:29:13;56395.16;;;-144.48;69.24
68758;BME280;55747;51.998;4.466;2023-04-28T02:31:38;56341.41;;;-144.48;69.20
68758;BME280;55747;51.998;4.466;2023-04-28T02:34:03;56364.13;;;-144.48;69.82
68758;BME280;55747;51.998;4.466;2023-04-28T02:36:28;56337.25;;;-144.48;69.75
68758;BME280;55747;51.998;4.466;2023-04-28T02:38:53;56397.22;;;-144.48;69.80
68758;BME280;55747;51.998;4.466;2023-04-28T02:41:19;56339.34;;;-144.48;69.82
68758;BME280;55747;51.998;4.466;2023-04-28T02:43:44;56351.75;;;-144.48;69.70
68758;BME280;55747;51.998;4.466;2023-04-28T02:46:10;56384.81;;;-144.48;70.09
68758;BME280;55747;51.998;4.466;2023-04-28T02:48:35;56357.94;;;-144.48;69.93
68758;BME280;55747;51.998;4.466;2023-04-28T02:51:01;56368.28;;;-144.48;70.27
68758;BME280;55747;51.998;4.466;2023-04-28T02:53:26;56397.22;;;-144.48;70.47
68758;BME280;55747;51.998;4.466;2023-04-28T02:55:52;56384.81;;;-144.48;70.50
68758;BME280;55747;51.998;4.466;2023-04-28T02:58:17;56395.16;;;-144.48;71.05
68758;BME280;55747;51.998;4.466;2023-04-28T03:00:42;56357.94;;;-144.48;71.13
68758;BME280;55747;51.998;4.466;2023-04-28T03:03:08;56380.69;;;-144.48;71.38
68758;BME280;55747;51.998;4.466;2023-04-28T03:05:33;56397.22;;;-144.48;71.48
68758;BME280;55747;51.998;4.466;2023-04-28T03:07:58;56370.34;;;-144.48;71.94
68758;BME280;55747;51.998;4.466;2023-04-28T03:10:24;56349.66;;;-144.48;71.78
68758;BME280;55747;51.998;4.466;2023-04-28T03:12:49;56386.88;;;-144.48;71.96
68758;BME280;55747;51.998;4.466;2023-04-28T03:15:15;56357.94;;;-144.48;71.56
68758;BME280;55747;51.998;4.466;2023-04-28T03:17:40;56403.41;;;-144.48;71.69
68758;BME280;55747;51.998;4.466;2023-04-28T03:20:07;56364.13;;;-144.48;71.67
68758;BME280;55747;51.998;4.466;2023-04-28T03:22:33;56372.41;;;-144.48;71.85
68758;BME280;55747;51.998;4.466;2023-04-28T03:24:58;56388.94;;;-144.48;71.94
68758;BME280;55747;51.998;4.466;2023-04-28T03:27:23;56364.13;;;-144.48;72.13
68758;BME280;55747;51.998;4.466;2023-04-28T03:29:48;56382.75;;;-144.48;72.29
68758;BME280;55747;51.998;4.466;2023-04-28T03:32:14;56364.13;;;-144.48;72.49
68758;BME280;55747;51.998;4.466;2023-04-28T03:34:39;56370.34;;;-144.48;72.62
68758;BME280;55747;51.998;4.466;2023-04-28T03:37:04;56343.47;;;-144.48;72.89
68758;BME280;55747;51.998;4.466;2023-04-28T03:39:29;56349.66;;;-144.48;73.14
68758;BME280;55747;51.998;4.466;2023-04-28T03:41:55;56347.59;;;-144.48;73.10
68758;BME280;55747;51.998;4.466;2023-04-28T03:44:20;56405.50;;;-144.48;73.19
68758;BME280;55747;51.998;4.466;2023-04-28T03:46:45;56388.94;;;-144.48;73.23
68758;BME280;55747;51.998;4.466;2023-04-28T03:49:10;56345.53;;;-144.48;73.68
68758;BME280;55747;51.998;4.466;2023-04-28T03:51:36;56349.66;;;-144.48;74.20
68758;BME280;55747;51.998;4.466;2023-04-28T03:54:01;56384.81;;;-144.48;74.51
68758;BME280;55747;51.998;4.466;2023-04-28T03:56:26;56349.66;;;-144.48;74.39
68758;BME280;55747;51.998;4.466;2023-04-28T03:58:51;56378.63;;;-144.48;74.42
68758;BME280;55747;51.998;4.466;2023-04-28T04:01:16;56372.41;;;-144.48;74.33
68758;BME280;55747;51.998;4.466;2023-04-28T04:03:41;56335.19;;;-144.48;74.94
68758;BME280;55747;51.998;4.466;2023-04-28T04:06:07;56391.00;;;-144.48;75.13
68758;BME280;55747;51.998;4.466;2023-04-28T04:08:32;56397.22;;;-144.48;75.43
68758;BME280;55747;51.998;4.466;2023-04-28T04:10:57;56360.00;;;-144.48;75.32
68758;BME280;55747;51.998;4.466;2023-04-28T04:13:23;56362.06;;;-144.48;75.90
68758;BME280;55747;51.998;4.466;2023-04-28T04:15:48;56347.59;;;-144.48;76.05
68758;BME280;55747;51.998;4.466;2023-04-28T04:18:14;56397.22;;;-144.48;76.30
68758;BME280;55747;51.998;4.466;2023-04-28T04:20:40;56415.81;;;-144.48;76.16
68758;BME280;55747;51.998;4.466;2023-04-28T04:23:06;56391.00;;;-144.48;76.38
68758;BME280;55747;51.998;4.466;2023-04-28T04:25:31;56399.28;;;-144.48;76.63
68758;BME280;55747;51.998;4.466;2023-04-28T04:27:58;56362.06;;;-144.48;76.51
68758;BME280;55747;51.998;4.466;2023-04-28T04:30:23;56384.81;;;-144.48;76.75
68758;BME280;55747;51.998;4.466;2023-04-28T04:32:48;56368.28;;;-144.48;76.57
68758;BME280;55747;51.998;4.466;2023-04-28T04:35:14;56357.94;;;-144.48;76.60
68758;BME280;55747;51.998;4.466;2023-04-28T04:37:39;56403.41;;;-144.48;76.49
68758;BME280;55747;51.998;4.466;2023-04-28T04:40:05;56306.25;;;-144.48;76.71
68758;BME280;55747;51.998;4.466;2023-04-28T04:42:30;56374.47;;;-144.48;77.81
68758;BME280;55747;51.998;4.466;2023-04-28T04:44:56;56376.53;;;-144.48;78.42
68758;BME280;55747;51.998;4.466;2023-04-28T04:47:21;56360.00;;;-144.48;78.77
68758;BME280;55747;51.998;4.466;2023-04-28T04:49:47;56403.41;;;-144.48;79.03
68758;BME280;55747;51.998;4.466;2023-04-28T04:52:12;56366.22;;;-144.48;79.40
68758;BME280;55747;51.998;4.466;2023-04-28T04:54:38;56378.63;;;-144.48;80.13
68758;BME280;55747;51.998;4.466;2023-04-28T04:57:03;56329.00;;;-144.48;81.74
68758;BME280;55747;51.998;4.466;2023-04-28T04:59:28;56393.09;;;-144.48;83.38
68758;BME280;55747;51.998;4.466;2023-04-28T05:01:53;56374.47;;;-144.48;85.70
68758;BME280;55747;51.998;4.466;2023-04-28T05:04:19;56388.94;;;-144.48;88.60
68758;BME280;55747;51.998;4.466;2023-04-28T05:06:44;56386.88;;;-144.48;92.01
68758;BME280;55747;51.998;4.466;2023-04-28T05:09:11;56380.69;;;-144.48;94.97
68758;BME280;55747;51.998;4.466;2023-04-28T05:11:37;56349.66;;;-144.48;97.44
68758;BME280;55747;51.998;4.466;2023-04-28T05:14:02;56388.94;;;-144.48;99.88
68758;BME280;55747;51.998;4.466;2023-04-28T05:16:27;56362.06;;;-144.48;100.00
68758;BME280;55747;51.998;4.466;2023-04-28T05:18:52;56351.75;;;-144.48;100.00
68758;BME280;55747;51.998;4.466;2023-04-28T05:21:17;56376.53;;;-144.48;100.00
68758;BME280;55747;51.998;4.466;2023-04-28T05:23:43;56353.81;;;-144.48;100.00
68758;BME280;55747;51.998;4.466;2023-04-28T05:26:08;56376.53;;;-144.48;100.00
68758;BME280;55747;51.998;4.466;2023-04-28T05:28:33;56355.88;;;-144.48;100.00
68758;BME280;55747;51.998;4.466;2023-04-28T05:30:58;56386.88;;;-144.48;100.00
68758;BME280;55747;51.998;4.466;2023-04-28T05:33:24;56413.75;;;-144.48;100.00
68758;BME280;55747;51.998;4.466;2023-04-28T05:35:49;56384.81;;;-144.48;100.00
68758;BME280;55747;51.998;4.466;2023-04-28T05:38:15;56397.22;;;-144.48;100.00
68758;BME280;55747;51.998;4.466;2023-04-28T05:40:40;56353.81;;;-144.48;100.00
68758;BME280;55747;51.998;4.466;2023-04-28T05:43:06;56376.53;;;-144.48;100.00
68758;BME280;55747;51.998;4.466;2023-04-28T05:45:31;56395.16;;;-144.48;100.00
68758;BME280;55747;51.998;4.466;2023-04-28T05:47:56;56391.00;;;-144.48;100.00
68758;BME280;55747;51.998;4.466;2023-04-28T05:50:21;56428.22;;;-144.48;100.00
68758;BME280;55747;51.998;4.466;2023-04-28T05:52:47;56364.13;;;-144.48;100.00
68758;BME280;55747;51.998;4.466;2023-04-28T05:55:12;56384.81;;;-144.48;100.00
68758;BME280;55747;51.998;4.466;2023-04-28T05:57:37;56374.47;;;-144.48;100.00
68758;BME280;55747;51.998;4.466;2023-04-28T06:00:03;56366.22;;;-144.48;100.00
68758;BME280;55747;51.998;4.466;2023-04-28T06:02:28;56368.28;;;-144.48;100.00
68758;BME280;55747;51.998;4.466;2023-04-28T06:04:53;56407.56;;;-144.48;100.00
68758;BME280;55747;51.998;4.466;2023-04-28T06:07:18;56374.47;;;-144.48;100.00
68758;BME280;55747;51.998;4.466;2023-04-28T06:09:43;56370.34;;;-144.48;100.00
68758;BME280;55747;51.998;4.466;2023-04-28T06:12:09;56386.88;;;-144.48;100.00
68758;BME280;55747;51.998;4.466;2023-04-28T06:14:34;56388.94;;;-144.48;100.00
68758;BME280;55747;51.998;4.466;2023-04-28T06:17:01;56393.09;;;-144.48;100.00
68758;BME280;55747;51.998;4.466;2023-04-28T06:19:27;56386.88;;;-144.48;100.00
68758;BME280;55747;51.998;4.466;2023-04-28T06:21:52;56422.03;;;-144.48;100.00
68758;BME280;55747;51.998;4.466;2023-04-28T06:24:17;56339.34;;;-144.48;100.00
68758;BME280;55747;51.998;4.466;2023-04-28T06:26:42;56397.22;;;-144.48;100.00
68758;BME280;55747;51.998;4.466;2023-04-28T06:29:07;56372.41;;;-144.48;100.00
68758;BME280;55747;51.998;4.466;2023-04-28T06:31:33;56343.47;;;-144.48;100.00
68758;BME280;55747;51.998;4.466;2023-04-28T06:33:58;56376.53;;;-144.48;100.00
68758;BME280;55747;51.998;4.466;2023-04-28T06:36:23;56405.50;;;-144.48;100.00
68758;BME280;55747;51.998;4.466;2023-04-28T06:38:48;56432.38;;;-144.48;100.00
68758;BME280;55747;51.998;4.466;2023-04-28T06:41:14;56417.91;;;-144.48;100.00
68758;BME280;55747;51.998;4.466;2023-04-28T06:43:39;56403.41;;;-144.48;100.00
68758;BME280;55747;51.998;4.466;2023-04-28T06:46:04;56391.00;;;-144.48;100.00
68758;BME280;55747;51.998;4.466;2023-04-28T06:48:30;56380.69;;;-144.48;100.00
68758;BME280;55747;51.998;4.466;2023-04-28T06:50:55;56382.75;;;-144.48;100.00
68758;BME280;55747;51.998;4.466;2023-04-28T06:53:20;56384.81;;;-144.48;100.00
68758;BME280;55747;51.998;4.466;2023-04-28T06:55:45;56372.41;;;-144.48;100.00
68758;BME280;55747;51.998;4.466;2023-04-28T06:58:11;56378.63;;;-144.48;100.00
68758;BME280;55747;51.998;4.466;2023-04-28T07:00:36;56362.06;;;-144.48;100.00
68758;BME280;55747;51.998;4.466;2023-04-28T07:03:01;56388.94;;;-144.48;100.00
68758;BME280;55747;51.998;4.466;2023-04-28T07:05:26;56378.63;;;-144.48;100.00
68758;BME280;55747;51.998;4.466;2023-04-28T07:07:52;56374.47;;;-144.48;100.00
68758;BME280;55747;51.998;4.466;2023-04-28T07:10:18;56401.34;;;-144.48;100.00
68758;BME280;55747;51.998;4.466;2023-04-28T07:12:43;56355.88;;;-144.48;100.00
68758;BME280;55747;51.998;4.466;2023-04-28T07:15:08;56351.75;;;-144.48;100.00
68758;BME280;55747;51.998;4.466;2023-04-28T07:17:34;56397.22;;;-144.48;100.00
68758;BME280;55747;51.998;4.466;2023-04-28T07:19:59;56403.41;;;-144.48;100.00
68758;BME280;55747;51.998;4.466;2023-04-28T07:22:24;56407.56;;;-144.48;100.00
68758;BME280;55747;51.998;4.466;2023-04-28T07:24:49;56401.34;;;-144.48;100.00
68758;BME280;55747;51.998;4.466;2023-04-28T07:27:14;56376.53;;;-144.48;100.00
68758;BME280;55747;51.998;4.466;2023-04-28T07:29:40;56430.28;;;-144.48;100.00
68758;BME280;55747;51.998;4.466;2023-04-28T07:32:05;56378.63;;;-144.48;100.00
68758;BME280;55747;51.998;4.466;2023-04-28T07:34:32;56380.69;;;-144.48;100.00
68758;BME280;55747;51.998;4.466;2023-04-28T07:36:58;56407.56;;;-144.48;100.00
68758;BME280;55747;51.998;4.466;2023-04-28T07:39:23;56409.63;;;-144.48;100.00
68758;BME280;55747;51.998;4.466;2023-04-28T07:41:48;56407.56;;;-144.48;100.00
68758;BME280;55747;51.998;4.466;2023-04-28T07:44:14;56378.63;;;-144.48;100.00
68758;BME280;55747;51.998;4.466;2023-04-28T07:46:39;56393.09;;;-144.48;100.00
68758;BME280;55747;51.998;4.466;2023-04-28T07:49:04;56399.28;;;-144.48;100.00
68758;BME280;55747;51.998;4.466;2023-04-28T07:51:30;56436.50;;;-144.48;100.00
68758;BME280;55747;51.998;4.466;2023-04-28T07:53:55;56413.75;;;-144.48;100.00
68758;BME280;55747;51.998;4.466;2023-04-28T07:56:20;56417.91;;;-144.48;100.00
68758;BME280;55747;51.998;4.466;2023-04-28T07:58:46;56409.63;;;-144.48;100.00
68758;BME280;55747;51.998;4.466;2023-04-28T08:01:11;56415.81;;;-144.48;100.00
68758;BME280;55747;51.998;4.466;2023-04-28T08:03:37;56424.09;;;-144.48;100.00
68758;BME280;55747;51.998;4.466;2023-04-28T08:06:02;56405.50;;;-144.48;100.00
68758;BME280;55747;51.998;4.466;2023-04-28T08:08:28;56422.03;;;-144.48;100.00
68758;BME280;55747;51.998;4.466;2023-04-28T08:10:53;56413.75;;;-144.48;100.00
68758;BME280;55747;51.998;4.466;2023-04-28T08:13:19;56380.69;;;-144.48;100.00
68758;BME280;55747;51.998;4.466;2023-04-28T08:15:44;56419.97;;;-144.48;100.00
68758;BME280;55747;51.998;4.466;2023-04-28T08:18:11;56457.19;;;-144.48;100.00
68758;BME280;55747;51.998;4.466;2023-04-28T08:20:36;56413.75;;;-144.48;100.00
68758;BME280;55747;51.998;4.466;2023-04-28T08:23:01;56428.22;;;-144.48;100.00
68758;BME280;55747;51.998;4.466;2023-04-28T08:25:27;56453.03;;;-144.48;100.00
68758;BME280;55747;51.998;4.466;2023-04-28T08:27:52;56426.16;;;-144.48;100.00
68758;BME280;55747;51.998;4.466;2023-04-28T08:30:19;56444.78;;;-144.48;100.00
68758;BME280;55747;51.998;4.466;2023-04-28T08:32:45;56428.22;;;-144.48;100.00
68758;BME280;55747;51.998;4.466;2023-04-28T08:35:10;56393.09;;;-144.48;100.00
68758;BME280;55747;51.998;4.466;2023-04-28T08:37:35;56432.38;;;-144.48;100.00
68758;BME280;55747;51.998;4.466;2023-04-28T08:40:01;56430.28;;;-144.48;100.00
68758;BME280;55747;51.998;4.466;2023-04-28T08:42:28;56403.41;;;-144.48;100.00
68758;BME280;55747;51.998;4.466;2023-04-28T08:44:55;56426.16;;;-144.48;100.00
68758;BME280;55747;51.998;4.466;2023-04-28T08:47:23;56419.97;;;-144.48;100.00
68758;BME280;55747;51.998;4.466;2023-04-28T08:49:48;56438.56;;;-144.48;100.00
68758;BME280;55747;51.998;4.466;2023-04-28T08:52:15;56440.63;;;-144.48;100.00
68758;BME280;55747;51.998;4.466;2023-04-28T08:54:41;56434.44;;;-144.48;100.00
68758;BME280;55747;51.998;4.466;2023-04-28T08:57:09;56430.28;;;-144.48;100.00
68758;BME280;55747;51.998;4.466;2023-04-28T08:59:38;56440.63;;;-144.48;100.00
68758;BME280;55747;51.998;4.466;2023-04-28T09:02:05;56453.03;;;-144.48;100.00
68758;BME280;55747;51.998;4.466;2023-04-28T09:04:31;56409.63;;;-144.48;100.00
68758;BME280;55747;51.998;4.466;2023-04-28T09:06:56;56432.38;;;-144.48;100.00
68758;BME280;55747;51.998;4.466;2023-04-28T09:09:23;56448.91;;;-144.48;100.00
68758;BME280;55747;51.998;4.466;2023-04-28T09:12:07;56450.97;;;-144.48;100.00
68758;BME280;55747;51.998;4.466;2023-04-28T09:14:34;56424.09;;;-144.48;100.00
68758;BME280;55747;51.998;4.466;2023-04-28T09:16:59;56426.16;;;-144.48;100.00
68758;BME280;55747;51.998;4.466;2023-04-28T09:19:32;56434.44;;;-144.48;100.00
68758;BME280;55747;51.998;4.466;2023-04-28T09:21:58;56438.56;;;-144.48;100.00
68758;BME280;55747;51.998;4.466;2023-04-28T09:26:52;56409.63;;;-144.48;100.00
68758;BME280;55747;51.998;4.466;2023-04-28T09:29:17;56442.69;;;-144.48;100.00
68758;BME280;55747;51.998;4.466;2023-04-28T09:31:43;56422.03;;;-144.48;100.00
68758;BME280;55747;51.998;4.466;2023-04-28T09:34:08;56430.28;;;-144.48;100.00
68758;BME280;55747;51.998;4.466;2023-04-28T09:36:34;56411.69;;;-144.48;100.00
68758;BME280;55747;51.998;4.466;2023-04-28T09:39:00;56384.81;;;-144.48;100.00
68758;BME280;55747;51.998;4.466;2023-04-28T09:41:38;56444.78;;;-144.48;100.00
68758;BME280;55747;51.998;4.466;2023-04-28T09:44:11;56436.50;;;-144.48;100.00
68758;BME280;55747;51.998;4.466;2023-04-28T09:46:36;56422.03;;;-144.48;100.00
68758;BME280;55747;51.998;4.466;2023-04-28T09:49:02;56411.69;;;-144.48;100.00
68758;BME280;55747;51.998;4.466;2023-04-28T09:51:27;56438.56;;;-144.48;100.00
68758;BME280;55747;51.998;4.466;2023-04-28T09:53:52;56450.97;;;-144.48;100.00
68758;BME280;55747;51.998;4.466;2023-04-28T09:56:18;56424.09;;;-144.48;100.00
68758;BME280;55747;51.998;4.466;2023-04-28T09:58:45;56417.91;;;-144.48;100.00
68758;BME280;55747;51.998;4.466;2023-04-28T10:01:12;56388.94;;;-144.48;100.00
68758;BME280;55747;51.998;4.466;2023-04-28T10:03:37;56409.63;;;-144.48;100.00
68758;BME280;55747;51.998;4.466;2023-04-28T10:06:04;56424.09;;;-144.48;100.00
68758;BME280;55747;51.998;4.466;2023-04-28T10:08:29;56419.97;;;-144.48;100.00
68758;BME280;55747;51.998;4.466;2023-04-28T10:10:55;56419.97;;;-144.48;100.00
68758;BME280;55747;51.998;4.466;2023-04-28T10:13:21;56405.50;;;-144.48;100.00
68758;BME280;55747;51.998;4.466;2023-04-28T10:15:47;56424.09;;;-144.48;100.00
68758;BME280;55747;51.998;4.466;2023-04-28T10:18:13;56391.00;;;-144.48;100.00
68758;BME280;55747;51.998;4.466;2023-04-28T10:20:40;56424.09;;;-144.48;100.00
68758;BME280;55747;51.998;4.466;2023-04-28T10:23:21;56455.09;;;-144.48;100.00
68758;BME280;55747;51.998;4.466;2023-04-28T10:25:52;56432.38;;;-144.48;100.00
68758;BME280;55747;51.998;4.466;2023-04-28T10:28:18;56419.97;;;-144.48;100.00
68758;BME280;55747;51.998;4.466;2023-04-28T10:31:07;56469.56;;;-144.48;100.00
68758;BME280;55747;51.998;4.466;2023-04-28T10:33:29;56417.91;;;-144.48;100.00
68758;BME280;55747;51.998;4.466;2023-04-28T10:35:56;56438.56;;;-144.48;100.00
68758;BME280;55747;51.998;4.466;2023-04-28T10:38:21;56413.75;;;-144.48;100.00
68758;BME280;55747;51.998;4.466;2023-04-28T10:40:48;56463.38;;;-144.48;100.00
68758;BME280;55747;51.998;4.466;2023-04-28T10:43:31;56409.63;;;-144.48;100.00
68758;BME280;55747;51.998;4.466;2023-04-28T10:58:39;56417.91;;;-144.48;100.00
68758;BME280;55747;51.998;4.466;2023-04-28T11:06:16;56450.97;;;-144.48;100.00
68758;BME280;55747;51.998;4.466;2023-04-28T11:08:43;56442.69;;;-144.48;100.00
68758;BME280;55747;51.998;4.466;2023-04-28T11:11:11;56453.03;;;-144.48;100.00
68758;BME280;55747;51.998;4.466;2023-04-28T11:13:40;56438.56;;;-144.48;100.00
68758;BME280;55747;51.998;4.466;2023-04-28T11:16:06;56432.38;;;-144.48;100.00
68758;BME280;55747;51.998;4.466;2023-04-28T11:18:53;56422.03;;;-144.48;100.00
68758;BME280;55747;51.998;4.466;2023-04-28T11:21:17;56430.28;;;-144.48;100.00
68758;BME280;55747;51.998;4.466;2023-04-28T11:23:43;56434.44;;;-144.48;100.00
68758;BME280;55747;51.998;4.466;2023-04-28T11:26:08;56463.38;;;-144.48;100.00
68758;BME280;55747;51.998;4.466;2023-04-28T11:28:34;56409.63;;;-144.48;100.00
68758;BME280;55747;51.998;4.466;2023-04-28T11:31:10;56438.56;;;-144.48;100.00
68758;BME280;55747;51.998;4.466;2023-04-28T11:33:36;56455.09;;;-144.48;100.00
68758;BME280;55747;51.998;4.466;2023-04-28T11:36:02;56450.97;;;-144.48;100.00
68758;BME280;55747;51.998;4.466;2023-04-28T11:38:27;56455.09;;;-144.48;100.00
68758;BME280;55747;51.998;4.466;2023-04-28T11:40:56;56459.25;;;-144.48;100.00
68758;BME280;55747;51.998;4.466;2023-04-28T11:43:30;56450.97;;;-144.48;100.00
68758;BME280;55747;51.998;4.466;2023-04-28T11:45:56;56484.06;;;-144.48;100.00
68758;BME280;55747;51.998;4.466;2023-04-28T11:48:21;56453.03;;;-144.48;100.00
68758;BME280;55747;51.998;4.466;2023-04-28T11:50:49;56455.09;;;-144.48;100.00
68758;BME280;55747;51.998;4.466;2023-04-28T11:53:15;56446.84;;;-144.48;100.00
68758;BME280;55747;51.998;4.466;2023-04-28T11:55:40;56448.91;;;-144.48;100.00
68758;BME280;55747;51.998;4.466;2023-04-28T11:58:21;56469.56;;;-144.48;100.00
68758;BME280;55747;51.998;4.466;2023-04-28T12:03:32;56481.97;;;-144.48;100.00
68758;BME280;55747;51.998;4.466;2023-04-28T12:05:57;56465.44;;;-144.48;100.00
68758;BME280;55747;51.998;4.466;2023-04-28T12:08:28;56448.91;;;-144.48;100.00
68758;BME280;55747;51.998;4.466;2023-04-28T12:11:06;56446.84;;;-144.48;100.00
68758;BME280;55747;51.998;4.466;2023-04-28T12:13:32;56465.44;;;-144.48;100.00
68758;BME280;55747;51.998;4.466;2023-04-28T12:15:57;56486.13;;;-144.48;100.00
68758;BME280;55747;51.998;4.466;2023-04-28T12:18:25;56455.09;;;-144.48;100.00
68758;BME280;55747;51.998;4.466;2023-04-28T12:20:51;56395.16;;;-144.48;100.00
68758;BME280;55747;51.998;4.466;2023-04-28T12:23:32;56453.03;;;-144.48;100.00
68758;BME280;55747;51.998;4.466;2023-04-28T12:25:57;56455.09;;;-144.48;100.00
68758;BME280;55747;51.998;4.466;2023-04-28T12:28:23;56430.28;;;-144.48;100.00
68758;BME280;55747;51.998;4.466;2023-04-28T12:30:48;56426.16;;;-144.48;100.00
68758;BME280;55747;51.998;4.466;2023-04-28T12:33:23;56463.38;;;-144.48;100.00
68758;BME280;55747;51.998;4.466;2023-04-28T12:35:49;56453.03;;;-144.48;100.00
68758;BME280;55747;51.998;4.466;2023-04-28T12:38:19;56475.78;;;-144.48;100.00
68758;BME280;55747;51.998;4.466;2023-04-28T12:40:44;56479.91;;;-144.48;100.00
68758;BME280;55747;51.998;4.466;2023-04-28T12:43:10;56442.69;;;-144.48;100.00
68758;BME280;55747;51.998;4.466;2023-04-28T12:45:36;56496.44;;;-144.48;100.00
68758;BME280;55747;51.998;4.466;2023-04-28T12:48:01;56457.19;;;-144.48;100.00
68758;BME280;55747;51.998;4.466;2023-04-28T12:50:26;56473.72;;;-144.48;100.00
68758;BME280;55747;51.998;4.466;2023-04-28T12:52:53;56477.84;;;-144.48;100.00